Time;durP1;ratioP1;P1;durP2;ratioP2;P2;SDS_P1;SDS_P2;PMS_P1;PMS_P2;Temp;Humidity;BMP_temperature;BMP_pressure;BME280_temperature;BME280_humidity;BME280_pressure;Samples;Min_cycle;Max_cycle;Signal;HPM_P1;HPM_P2
2024/01/24 00:01:39;;;;;;;9.17;3.10;;;5.60;99.90;;;;;;5138125;28;20458;-65
2024/01/24 00:04:08;;;;;;;8.13;2.90;;;5.60;99.90;;;;;;5119672;28;20481;-65
2024/01/24 00:06:35;;;;;;;7.23;2.20;;;5.60;99.90;;;;;;5116714;28;20443;-65
2024/01/24 00:09:01;;;;;;;12.53;2.40;;;5.60;99.90;;;;;;5116779;28;20504;-67
2024/01/24 00:11:29;;;;;;;8.90;3.37;;;5.60;99.90;;;;;;5117447;28;20428;-66
2024/01/24 00:13:58;;;;;;;5.23;2.27;;;5.60;99.90;;;;;;5117308;28;20433;-66
2024/01/24 00:16:25;;;;;;;16.70;2.50;;;5.70;99.90;;;;;;5118123;28;20454;-66
2024/01/24 00:18:52;;;;;;;8.00;2.33;;;5.70;99.90;;;;;;5117758;28;20440;-66
2024/01/24 00:21:20;;;;;;;9.83;2.37;;;5.70;99.90;;;;;;5116131;28;20455;-64
2024/01/24 00:23:47;;;;;;;8.00;2.67;;;5.70;99.90;;;;;;5110343;28;20487;-63
2024/01/24 00:26:14;;;;;;;8.77;2.53;;;5.80;99.90;;;;;;5118000;28;20499;-66
2024/01/24 00:28:41;;;;;;;6.70;1.60;;;5.80;99.90;;;;;;5116951;28;20448;-66
2024/01/24 00:31:08;;;;;;;9.53;2.30;;;5.80;99.90;;;;;;5116708;28;20455;-64
2024/01/24 00:33:35;;;;;;;10.23;2.50;;;5.80;99.90;;;;;;5116031;28;20463;-67
2024/01/24 00:36:01;;;;;;;5.70;2.57;;;5.80;99.90;;;;;;5116805;28;20458;-66
2024/01/24 00:38:30;;;;;;;4.20;1.73;;;5.80;99.90;;;;;;5116878;28;20424;-66
2024/01/24 00:40:57;;;;;;;5.43;1.83;;;5.80;99.90;;;;;;5115376;28;20420;-64
2024/01/24 00:43:25;;;;;;;7.37;2.03;;;5.90;99.90;;;;;;5113559;28;20454;-65
2024/01/24 00:45:52;;;;;;;2.93;2.13;;;5.90;99.90;;;;;;5116629;28;20475;-64
2024/01/24 00:48:19;;;;;;;6.23;2.33;;;5.90;99.90;;;;;;5117359;28;20418;-67
2024/01/24 00:50:46;;;;;;;10.50;2.47;;;5.90;99.90;;;;;;5116745;28;20447;-66
2024/01/24 00:53:19;;;;;;;13.40;2.90;;;6.00;99.90;;;;;;5116397;28;20432;-66
2024/01/24 00:55:47;;;;;;;4.67;2.50;;;6.00;99.90;;;;;;5117145;28;20419;-66
2024/01/24 00:58:14;;;;;;;7.33;2.87;;;6.00;99.90;;;;;;5098972;28;20477;-66
2024/01/24 01:00:44;;;;;;;9.23;1.90;;;6.00;99.90;;;;;;5096835;28;20428;-66
2024/01/24 01:03:12;;;;;;;12.60;2.50;;;6.10;99.90;;;;;;5112019;28;20451;-66
2024/01/24 01:05:39;;;;;;;9.00;1.90;;;6.10;99.90;;;;;;5099373;28;20526;-66
2024/01/24 01:08:06;;;;;;;5.53;1.70;;;6.10;99.90;;;;;;5094997;28;20450;-65
2024/01/24 01:10:33;;;;;;;7.13;2.20;;;6.10;99.90;;;;;;5095613;28;20459;-65
2024/01/24 01:13:05;;;;;;;4.97;1.87;;;6.10;99.90;;;;;;5102348;28;20429;-65
2024/01/24 01:15:35;;;;;;;2.83;1.73;;;6.10;99.90;;;;;;5115819;28;20446;-66
2024/01/24 01:18:02;;;;;;;1.97;1.53;;;6.10;99.90;;;;;;5113771;28;20436;-66
2024/01/24 01:20:28;;;;;;;5.30;1.90;;;6.20;99.90;;;;;;5095466;28;20453;-66
2024/01/24 01:22:55;;;;;;;1.60;1.17;;;6.20;99.90;;;;;;5096132;28;20471;-66
2024/01/24 01:25:24;;;;;;;3.10;1.73;;;6.20;99.90;;;;;;5096121;28;20457;-66
2024/01/24 01:27:51;;;;;;;6.80;2.47;;;6.20;99.90;;;;;;5096192;28;20469;-66
2024/01/24 01:30:20;;;;;;;3.77;1.70;;;6.30;99.90;;;;;;5095870;28;20420;-66
2024/01/24 01:32:47;;;;;;;2.57;1.67;;;6.30;99.90;;;;;;5095448;28;20452;-65
2024/01/24 01:35:14;;;;;;;7.00;1.80;;;6.40;99.90;;;;;;5095081;28;20468;-63
2024/01/24 01:37:41;;;;;;;2.90;1.50;;;6.40;99.90;;;;;;5111453;28;20479;-65
2024/01/24 01:40:09;;;;;;;2.33;1.43;;;6.40;99.90;;;;;;5115081;28;20452;-66
2024/01/24 01:42:36;;;;;;;2.63;1.70;;;6.50;99.90;;;;;;5114851;28;20410;-66
2024/01/24 01:45:04;;;;;;;1.53;1.00;;;6.50;99.90;;;;;;5114629;28;20491;-66
2024/01/24 01:47:32;;;;;;;3.73;1.30;;;6.50;99.90;;;;;;5114724;28;20523;-65
2024/01/24 01:49:59;;;;;;;1.20;0.90;;;6.60;99.90;;;;;;5114561;28;20496;-64
2024/01/24 01:52:26;;;;;;;5.37;1.70;;;6.60;99.90;;;;;;5114815;28;20447;-67
2024/01/24 01:54:57;;;;;;;1.93;1.00;;;6.60;99.90;;;;;;5095049;28;20448;-66
2024/01/24 01:57:24;;;;;;;2.10;1.30;;;6.60;99.90;;;;;;5125323;28;20719;-65
2024/01/24 01:59:51;;;;;;;2.07;1.40;;;6.60;99.90;;;;;;5118727;28;20503;-65
2024/01/24 02:02:18;;;;;;;2.60;1.63;;;6.60;99.90;;;;;;5118634;28;20511;-65
2024/01/24 02:04:47;;;;;;;2.33;1.43;;;6.70;99.90;;;;;;5111548;28;20481;-64
2024/01/24 02:07:15;;;;;;;3.97;1.23;;;6.70;99.90;;;;;;5105024;28;20449;-65
2024/01/24 02:09:42;;;;;;;3.40;1.50;;;6.70;99.90;;;;;;5113059;28;20469;-66
2024/01/24 02:12:11;;;;;;;2.37;1.20;;;6.70;99.90;;;;;;5102726;28;20479;-64
2024/01/24 02:14:38;;;;;;;4.20;1.60;;;6.70;99.90;;;;;;5111048;28;20449;-66
2024/01/24 02:17:05;;;;;;;3.00;1.33;;;6.70;99.90;;;;;;5118801;28;20433;-66
2024/01/24 02:19:32;;;;;;;1.33;1.10;;;6.70;99.90;;;;;;5102973;28;20464;-66
2024/01/24 02:22:00;;;;;;;1.40;1.30;;;6.80;99.90;;;;;;5098975;28;20459;-65
2024/01/24 02:24:29;;;;;;;6.83;1.20;;;6.80;99.90;;;;;;5099243;28;20472;-65
2024/01/24 02:26:56;;;;;;;1.10;1.00;;;6.80;99.90;;;;;;5099094;28;20469;-65
2024/01/24 02:29:22;;;;;;;5.13;2.03;;;6.80;99.90;;;;;;5099399;28;20440;-63
2024/01/24 02:31:49;;;;;;;1.40;1.23;;;6.90;99.90;;;;;;5097661;28;20450;-66
2024/01/24 02:34:20;;;;;;;4.40;1.10;;;6.90;99.90;;;;;;5098427;28;20453;-65
2024/01/24 02:36:47;;;;;;;1.80;1.27;;;6.90;99.90;;;;;;5109398;28;20468;-64
2024/01/24 02:39:13;;;;;;;3.03;2.23;;;7.00;99.90;;;;;;5117714;28;20443;-65
2024/01/24 02:41:43;;;;;;;2.93;1.73;;;7.00;99.90;;;;;;5117454;28;20460;-66
2024/01/24 02:44:10;;;;;;;1.87;1.57;;;7.10;99.90;;;;;;5117331;28;20459;-65
2024/01/24 02:46:37;;;;;;;1.97;1.10;;;7.10;99.90;;;;;;5118515;28;20421;-65
2024/01/24 02:49:04;;;;;;;2.43;1.40;;;7.10;99.90;;;;;;5118715;28;20487;-66
2024/01/24 02:51:31;;;;;;;2.90;1.50;;;7.10;99.90;;;;;;5117350;28;20444;-65
2024/01/24 02:53:58;;;;;;;2.80;1.60;;;7.10;99.90;;;;;;5117456;28;20474;-65
2024/01/24 02:56:25;;;;;;;2.20;1.53;;;7.20;99.90;;;;;;5117721;28;20449;-66
2024/01/24 02:58:53;;;;;;;5.27;1.70;;;7.20;99.90;;;;;;5117086;28;20448;-65
2024/01/24 03:01:20;;;;;;;2.90;1.33;;;7.20;99.90;;;;;;5117109;28;20475;-65
2024/01/24 03:03:47;;;;;;;5.23;1.77;;;7.30;99.90;;;;;;5117409;28;20451;-65
2024/01/24 03:06:14;;;;;;;2.40;1.83;;;7.30;99.90;;;;;;5117189;28;20482;-65
2024/01/24 03:08:54;;;;;;;2.27;1.50;;;7.30;99.90;;;;;;5116053;28;20475;-65
2024/01/24 03:11:21;;;;;;;3.10;1.20;;;7.40;99.90;;;;;;5109325;28;20455;-65
2024/01/24 03:13:48;;;;;;;2.17;1.23;;;7.40;99.90;;;;;;5110019;28;20448;-66
2024/01/24 03:16:19;;;;;;;2.07;1.30;;;7.50;99.90;;;;;;5097360;28;20438;-66
2024/01/24 03:18:47;;;;;;;2.00;1.50;;;7.50;99.90;;;;;;5115229;28;20448;-66
2024/01/24 03:21:16;;;;;;;2.57;1.50;;;7.50;99.90;;;;;;5117059;28;20433;-65
2024/01/24 03:23:44;;;;;;;2.80;1.10;;;7.50;99.90;;;;;;5116578;28;20486;-64
2024/01/24 03:26:13;;;;;;;2.53;2.27;;;7.60;99.90;;;;;;5116350;28;20472;-66
2024/01/24 03:28:39;;;;;;;7.30;1.80;;;7.60;99.90;;;;;;5105579;28;20488;-65
2024/01/24 03:31:06;;;;;;;6.70;1.77;;;7.60;99.90;;;;;;5096513;28;20474;-65
2024/01/24 03:33:36;;;;;;;3.57;1.70;;;7.70;99.90;;;;;;5095889;28;20450;-66
2024/01/24 03:36:04;;;;;;;2.30;1.30;;;7.70;99.90;;;;;;5096305;28;20432;-65
2024/01/24 03:38:31;;;;;;;2.10;1.50;;;7.70;99.90;;;;;;5095982;28;20457;-65
2024/01/24 03:40:58;;;;;;;3.30;1.40;;;7.80;99.90;;;;;;5096025;28;20470;-66
2024/01/24 03:43:24;;;;;;;2.00;1.67;;;7.80;99.90;;;;;;5095661;28;20461;-65
2024/01/24 03:45:51;;;;;;;2.53;1.37;;;7.90;99.90;;;;;;5095741;28;20504;-66
2024/01/24 03:48:18;;;;;;;1.93;1.50;;;7.90;99.90;;;;;;5102081;28;20467;-66
2024/01/24 03:50:46;;;;;;;4.37;2.07;;;7.90;99.90;;;;;;5116044;28;20447;-65
2024/01/24 03:53:16;;;;;;;2.30;1.33;;;7.90;99.90;;;;;;5115793;28;20862;-66
2024/01/24 03:55:43;;;;;;;3.27;2.00;;;8.00;99.90;;;;;;5115744;28;20429;-68
2024/01/24 03:58:10;;;;;;;2.13;1.43;;;8.00;99.90;;;;;;5115062;28;20489;-66
2024/01/24 04:00:39;;;;;;;1.40;1.10;;;8.10;99.90;;;;;;5116196;28;20429;-67
2024/01/24 04:03:06;;;;;;;2.00;1.17;;;8.10;99.90;;;;;;5102250;28;20448;-66
2024/01/24 04:05:33;;;;;;;4.27;1.63;;;8.20;99.90;;;;;;5108726;28;20485;-67
2024/01/24 04:08:03;;;;;;;11.03;1.87;;;8.20;99.90;;;;;;5106373;28;20453;-68
2024/01/24 04:10:29;;;;;;;2.63;1.40;;;8.20;99.90;;;;;;5095087;28;20472;-66
2024/01/24 04:12:56;;;;;;;3.40;1.83;;;8.20;99.90;;;;;;5095549;28;20438;-67
2024/01/24 04:15:23;;;;;;;2.63;1.30;;;8.30;99.90;;;;;;5095945;28;20432;-66
2024/01/24 04:17:50;;;;;;;2.13;1.10;;;8.30;99.90;;;;;;5110149;28;20453;-67
2024/01/24 04:20:17;;;;;;;3.73;1.90;;;8.30;99.90;;;;;;5105219;28;20452;-66
2024/01/24 04:22:44;;;;;;;4.93;1.83;;;8.30;99.90;;;;;;5095296;28;20438;-66
2024/01/24 04:25:12;;;;;;;4.53;1.90;;;8.40;99.90;;;;;;5104631;28;20495;-67
2024/01/24 04:27:39;;;;;;;6.13;1.67;;;8.40;99.90;;;;;;5115406;28;20546;-66
2024/01/24 04:30:07;;;;;;;5.90;1.87;;;8.50;99.90;;;;;;5115140;28;20791;-68
2024/01/24 04:32:36;;;;;;;3.13;1.43;;;8.50;99.90;;;;;;5099671;28;20453;-67
2024/01/24 04:35:03;;;;;;;3.40;1.50;;;8.50;99.90;;;;;;5095499;28;20874;-62
2024/01/24 04:37:30;;;;;;;3.00;1.80;;;8.60;99.90;;;;;;5109592;28;20443;-63
2024/01/24 04:40:00;;;;;;;6.03;1.50;;;8.60;99.90;;;;;;5115357;28;20478;-65
2024/01/24 04:42:31;;;;;;;1.63;1.30;;;8.70;99.90;;;;;;5114537;28;20445;-67
2024/01/24 04:45:00;;;;;;;5.37;2.10;;;8.70;99.90;;;;;;5114539;28;20488;-66
2024/01/24 04:47:32;;;;;;;6.30;2.00;;;8.80;99.90;;;;;;5114286;28;20805;-66
2024/01/24 04:49:59;;;;;;;3.13;1.10;;;8.80;99.90;;;;;;5114348;28;20462;-66
2024/01/24 04:52:26;;;;;;;4.03;1.57;;;8.90;99.90;;;;;;5108381;28;20445;-67
2024/01/24 04:54:52;;;;;;;3.43;2.00;;;8.90;99.90;;;;;;5097404;28;20462;-67
2024/01/24 04:57:19;;;;;;;2.03;1.30;;;9.00;99.90;;;;;;5101883;28;20445;-66
2024/01/24 04:59:47;;;;;;;4.00;1.30;;;9.00;99.90;;;;;;5107905;28;20468;-64
2024/01/24 05:02:14;;;;;;;2.90;1.73;;;9.00;99.90;;;;;;5097247;28;20470;-67
2024/01/24 05:04:41;;;;;;;4.60;1.20;;;9.10;99.90;;;;;;5087598;28;20477;-66
2024/01/24 05:07:08;;;;;;;2.27;1.13;;;9.10;99.90;;;;;;5093510;28;20485;-66
2024/01/24 05:09:35;;;;;;;4.60;1.77;;;9.20;99.90;;;;;;5095285;28;20461;-67
2024/01/24 05:12:02;;;;;;;2.70;1.63;;;9.20;99.90;;;;;;5108500;28;20442;-66
2024/01/24 05:14:29;;;;;;;3.27;1.67;;;9.30;99.90;;;;;;5107160;28;20454;-68
2024/01/24 05:16:57;;;;;;;3.40;1.60;;;9.30;99.90;;;;;;5101229;28;20443;-66
2024/01/24 05:19:24;;;;;;;3.90;1.43;;;9.40;99.90;;;;;;5109154;28;20465;-67
2024/01/24 05:21:50;;;;;;;2.40;1.57;;;9.40;99.90;;;;;;5109072;28;20444;-65
2024/01/24 05:24:17;;;;;;;3.00;1.70;;;9.40;99.90;;;;;;5105396;28;20441;-65
2024/01/24 05:26:46;;;;;;;1.67;1.17;;;9.50;99.90;;;;;;5103851;28;20481;-65
2024/01/24 05:29:15;;;;;;;4.23;1.83;;;9.50;99.90;;;;;;5111375;28;20522;-67
2024/01/24 05:31:41;;;;;;;1.70;1.10;;;9.60;99.90;;;;;;5099154;28;20484;-66
2024/01/24 05:34:10;;;;;;;1.80;1.40;;;9.50;99.90;;;;;;5093745;28;20473;-66
2024/01/24 05:36:37;;;;;;;2.40;1.20;;;9.60;99.90;;;;;;5108905;28;20461;-66
2024/01/24 05:39:06;;;;;;;2.67;1.40;;;9.60;99.90;;;;;;5099601;28;20493;-66
2024/01/24 05:41:33;;;;;;;3.73;1.60;;;9.70;99.90;;;;;;5097620;28;20484;-66
2024/01/24 05:44:00;;;;;;;1.80;1.10;;;9.70;99.90;;;;;;5098556;28;20439;-66
2024/01/24 05:46:27;;;;;;;1.77;1.00;;;9.70;99.90;;;;;;5102104;28;20504;-63
2024/01/24 05:48:55;;;;;;;3.10;1.20;;;9.80;99.90;;;;;;5103015;28;20441;-63
2024/01/24 05:51:23;;;;;;;2.47;1.67;;;9.70;99.90;;;;;;5110287;28;20447;-66
2024/01/24 05:53:51;;;;;;;2.13;1.40;;;9.70;99.90;;;;;;5105880;28;20434;-65
2024/01/24 05:56:18;;;;;;;1.73;1.30;;;9.80;99.90;;;;;;5103802;28;20485;-68
2024/01/24 05:58:47;;;;;;;2.47;1.37;;;9.80;99.90;;;;;;5108503;28;20512;-66
2024/01/24 06:01:14;;;;;;;6.23;1.30;;;9.80;99.90;;;;;;5104199;28;20443;-66
2024/01/24 06:03:43;;;;;;;3.17;1.47;;;9.90;99.90;;;;;;5108486;28;20472;-67
2024/01/24 06:06:10;;;;;;;1.40;1.30;;;9.90;99.90;;;;;;5105374;28;20489;-65
2024/01/24 06:08:44;;;;;;;2.43;1.17;;;9.90;99.90;;;;;;5105930;28;20453;-66
2024/01/24 06:11:14;;;;;;;2.30;1.40;;;9.90;99.90;;;;;;5113099;28;20418;-65
2024/01/24 06:13:41;;;;;;;1.43;1.00;;;9.90;99.90;;;;;;5102787;28;20480;-66
2024/01/24 06:16:08;;;;;;;5.60;1.10;;;9.90;99.90;;;;;;5110078;28;20434;-65
2024/01/24 06:18:34;;;;;;;6.93;2.13;;;9.90;99.90;;;;;;5092447;28;21004;-66
2024/01/24 06:21:02;;;;;;;1.20;1.10;;;9.90;99.90;;;;;;5101830;28;20468;-65
2024/01/24 06:23:31;;;;;;;1.37;1.03;;;9.80;99.90;;;;;;5092660;28;20532;-66
2024/01/24 06:26:00;;;;;;;6.60;1.27;;;9.90;99.90;;;;;;5092640;28;20516;-66
2024/01/24 06:28:27;;;;;;;3.67;1.27;;;9.90;99.90;;;;;;5092609;28;20443;-64
2024/01/24 06:30:53;;;;;;;6.63;1.20;;;10.00;99.90;;;;;;5092867;28;20450;-65
2024/01/24 06:33:21;;;;;;;2.50;1.20;;;10.00;99.90;;;;;;5110458;28;20434;-65
2024/01/24 06:35:48;;;;;;;2.73;2.60;;;10.00;99.90;;;;;;5112652;28;20438;-66
2024/01/24 06:38:15;;;;;;;2.93;1.40;;;10.00;99.90;;;;;;5095212;28;20466;-66
2024/01/24 06:40:42;;;;;;;4.10;1.47;;;10.00;99.90;;;;;;5092230;28;20451;-66
2024/01/24 06:43:12;;;;;;;1.20;0.80;;;10.10;99.90;;;;;;5093188;28;20470;-65
2024/01/24 06:45:43;;;;;;;9.47;1.30;;;10.10;99.90;;;;;;5095696;28;20494;-66
2024/01/24 06:48:13;;;;;;;1.70;1.17;;;10.10;99.90;;;;;;5103364;28;20491;-67
2024/01/24 06:50:40;;;;;;;1.90;1.00;;;10.20;99.90;;;;;;5104676;28;20450;-65
2024/01/24 06:53:14;;;;;;;3.00;1.50;;;10.20;99.90;;;;;;5108217;28;20470;-66
2024/01/24 06:55:44;;;;;;;2.53;1.00;;;10.20;99.90;;;;;;5113771;28;20442;-67
2024/01/24 06:58:13;;;;;;;2.17;1.53;;;10.30;99.90;;;;;;5101135;28;20468;-66
2024/01/24 07:00:40;;;;;;;3.10;1.13;;;10.30;99.90;;;;;;5103856;28;20477;-65
2024/01/24 07:03:07;;;;;;;2.80;1.40;;;10.30;99.90;;;;;;5116071;28;20937;-67
2024/01/24 07:05:34;;;;;;;1.87;1.00;;;10.30;99.90;;;;;;5114674;28;20501;-65
2024/01/24 07:08:01;;;;;;;1.20;0.83;;;10.30;99.90;;;;;;5105661;28;20450;-66
2024/01/24 07:10:28;;;;;;;1.20;1.00;;;10.30;99.90;;;;;;5102205;28;20454;-67
2024/01/24 07:12:55;;;;;;;1.73;1.07;;;10.30;99.90;;;;;;5095155;28;20443;-65
2024/01/24 07:15:23;;;;;;;1.83;1.17;;;10.20;99.90;;;;;;5095325;28;20449;-65
2024/01/24 07:17:50;;;;;;;1.30;1.00;;;10.10;99.90;;;;;;5095258;28;20455;-65
2024/01/24 07:20:18;;;;;;;4.13;1.07;;;9.90;99.90;;;;;;5095931;28;20426;-66
2024/01/24 07:22:45;;;;;;;2.90;0.90;;;9.80;99.90;;;;;;5095583;28;20488;-64
2024/01/24 07:25:11;;;;;;;3.57;1.10;;;9.70;99.90;;;;;;5096212;28;20488;-66
2024/01/24 07:27:38;;;;;;;5.63;0.80;;;9.70;99.90;;;;;;5095973;28;20496;-66
2024/01/24 07:30:06;;;;;;;1.77;1.23;;;9.70;99.90;;;;;;5102611;28;20458;-66
2024/01/24 07:32:35;;;;;;;2.03;0.90;;;9.70;99.90;;;;;;5115602;28;20445;-65
2024/01/24 07:35:02;;;;;;;3.57;0.90;;;9.80;99.90;;;;;;5115439;28;20460;-65
2024/01/24 07:37:29;;;;;;;2.73;1.40;;;9.90;99.90;;;;;;5111484;28;20438;-65
2024/01/24 07:39:56;;;;;;;3.43;1.33;;;9.90;99.90;;;;;;5102652;28;20980;-67
2024/01/24 07:42:30;;;;;;;4.07;1.80;;;9.90;99.90;;;;;;5123544;23;20493;-63
2024/01/24 07:45:01;;;;;;;11.60;2.60;;;10.00;99.90;;;;;;5074005;28;20469;-64
2024/01/24 07:47:30;;;;;;;4.10;1.50;;;10.00;99.90;;;;;;5065144;28;20490;-65
2024/01/24 07:49:59;;;;;;;6.47;2.67;;;10.00;99.90;;;;;;5077481;28;20446;-64
2024/01/24 07:52:25;;;;;;;10.53;1.63;;;10.00;99.90;;;;;;5069797;28;20504;-64
2024/01/24 07:54:52;;;;;;;7.03;1.67;;;10.00;99.90;;;;;;5065673;28;20475;-66
2024/01/24 07:57:19;;;;;;;8.47;1.90;;;10.00;99.90;;;;;;5059736;28;20498;-65
2024/01/24 07:59:46;;;;;;;12.20;2.70;;;10.10;99.90;;;;;;5069706;28;20475;-64
2024/01/24 08:02:14;;;;;;;9.53;1.40;;;10.00;99.90;;;;;;5063630;28;20448;-66
2024/01/24 08:04:41;;;;;;;6.23;1.70;;;10.00;99.90;;;;;;5063922;28;20417;-62
2024/01/24 08:07:09;;;;;;;5.73;2.30;;;10.10;99.90;;;;;;5069410;28;20427;-66
2024/01/24 08:09:36;;;;;;;5.93;2.10;;;10.10;99.90;;;;;;5062811;28;20454;-67
2024/01/24 08:12:03;;;;;;;13.30;1.87;;;10.10;99.90;;;;;;5043165;28;21120;-67
2024/01/24 08:14:30;;;;;;;10.33;1.80;;;10.10;99.90;;;;;;5049544;28;20472;-66
2024/01/24 08:17:02;;;;;;;6.93;1.63;;;10.10;99.90;;;;;;5049553;28;20486;-66
2024/01/24 08:19:29;;;;;;;5.60;2.13;;;10.20;99.90;;;;;;5063343;28;20545;-63
2024/01/24 08:21:55;;;;;;;7.73;1.70;;;10.10;99.90;;;;;;5045430;28;20444;-66
2024/01/24 08:24:24;;;;;;;4.93;2.03;;;10.20;99.90;;;;;;5052226;28;20448;-66
2024/01/24 08:26:51;;;;;;;3.80;1.60;;;10.10;99.90;;;;;;5050526;28;20482;-64
2024/01/24 08:29:19;;;;;;;3.40;2.03;;;10.10;99.90;;;;;;5046517;28;20572;-66
2024/01/24 08:31:46;;;;;;;9.70;2.90;;;10.20;99.90;;;;;;5050640;28;20473;-64
2024/01/24 08:34:13;;;;;;;7.10;4.20;;;10.20;99.90;;;;;;5046296;28;20487;-64
2024/01/24 08:36:40;;;;;;;5.57;2.60;;;10.20;99.90;;;;;;5045943;28;21015;-66
2024/01/24 08:39:07;;;;;;;7.93;1.83;;;10.30;99.90;;;;;;5062763;28;20465;-64
2024/01/24 08:41:35;;;;;;;7.10;1.43;;;10.30;99.90;;;;;;5056805;28;20808;-64
2024/01/24 08:44:02;;;;;;;8.93;1.73;;;10.30;99.90;;;;;;5061137;28;20459;-63
2024/01/24 08:46:29;;;;;;;6.10;2.00;;;10.40;99.90;;;;;;5059092;28;20487;-65
2024/01/24 08:48:56;;;;;;;8.30;3.87;;;10.50;99.90;;;;;;5060859;28;20454;-65
2024/01/24 08:51:25;;;;;;;3.47;1.40;;;10.50;99.90;;;;;;5068089;28;20477;-65
2024/01/24 08:53:52;;;;;;;6.30;1.60;;;10.50;99.90;;;;;;5042208;28;20888;-66
2024/01/24 08:56:19;;;;;;;5.50;1.30;;;10.50;99.90;;;;;;5034101;28;20548;-65
2024/01/24 08:58:47;;;;;;;3.93;1.30;;;10.50;99.90;;;;;;5034265;28;20464;-68
2024/01/24 09:01:15;;;;;;;9.43;2.80;;;10.40;99.90;;;;;;5051203;28;20967;-67
2024/01/24 09:03:42;;;;;;;8.27;2.00;;;10.30;99.90;;;;;;5054198;28;20558;-67
2024/01/24 09:06:10;;;;;;;2.90;1.17;;;10.20;99.90;;;;;;5040567;28;20456;-70
2024/01/24 09:08:37;;;;;;;5.33;1.93;;;10.10;99.90;;;;;;5034379;28;20542;-67
2024/01/24 09:11:04;;;;;;;3.20;1.27;;;9.90;99.90;;;;;;5034702;28;20443;-68
2024/01/24 09:13:31;;;;;;;6.97;1.57;;;9.80;99.90;;;;;;5034571;28;20511;-68
2024/01/24 09:16:00;;;;;;;9.70;1.70;;;9.70;99.90;;;;;;5035658;28;20521;-67
2024/01/24 09:18:27;;;;;;;8.20;3.23;;;9.60;99.90;;;;;;5034843;28;20559;-68
2024/01/24 09:20:54;;;;;;;4.17;1.57;;;9.60;99.90;;;;;;5034952;28;20425;-71
2024/01/24 09:23:21;;;;;;;3.50;1.50;;;9.60;99.90;;;;;;5034516;28;20468;-65
2024/01/24 09:25:48;;;;;;;6.80;1.57;;;9.60;99.90;;;;;;5034751;28;20444;-70
2024/01/24 09:28:15;;;;;;;8.47;1.67;;;9.60;99.90;;;;;;5035278;28;20514;-69
2024/01/24 09:30:41;;;;;;;15.33;2.63;;;9.60;99.90;;;;;;5034948;28;20477;-68
2024/01/24 09:33:10;;;;;;;3.57;1.50;;;9.70;99.90;;;;;;5034472;28;20484;-65
2024/01/24 09:35:37;;;;;;;8.53;1.73;;;9.70;99.90;;;;;;5034462;28;20450;-65
2024/01/24 09:38:05;;;;;;;8.67;2.17;;;9.90;99.90;;;;;;5034366;28;20487;-67
2024/01/24 09:40:32;;;;;;;9.17;2.77;;;9.90;99.90;;;;;;5034363;28;20447;-63
2024/01/24 09:43:02;;;;;;;5.33;1.90;;;10.10;99.90;;;;;;5034916;28;20514;-63
2024/01/24 09:45:29;;;;;;;6.07;1.33;;;10.10;99.90;;;;;;5034641;28;20787;-67
2024/01/24 09:47:58;;;;;;;6.30;1.90;;;10.20;99.90;;;;;;5034231;28;20476;-67
2024/01/24 09:50:27;;;;;;;3.50;1.50;;;10.30;99.90;;;;;;5034547;28;20548;-68
2024/01/24 09:52:56;;;;;;;3.90;2.17;;;10.30;99.90;;;;;;5034280;28;20448;-66
2024/01/24 09:55:24;;;;;;;3.83;1.20;;;10.40;99.90;;;;;;5034462;28;20496;-66
2024/01/24 09:57:51;;;;;;;4.90;1.17;;;10.50;99.90;;;;;;5034127;28;20583;-64
2024/01/24 10:00:19;;;;;;;6.33;1.97;;;10.50;99.90;;;;;;5034445;28;20559;-67
2024/01/24 10:02:47;;;;;;;5.00;1.83;;;10.50;99.90;;;;;;5034502;28;20449;-62
2024/01/24 10:05:17;;;;;;;6.30;1.80;;;10.70;99.90;;;;;;5034397;28;20464;-65
2024/01/24 10:07:45;;;;;;;9.97;1.57;;;11.00;99.90;;;;;;5034176;28;20439;-65
2024/01/24 10:10:13;;;;;;;6.00;1.97;;;11.20;99.90;;;;;;5033921;28;20468;-67
2024/01/24 10:12:41;;;;;;;6.00;2.33;;;11.50;99.90;;;;;;5034161;28;20555;-63
2024/01/24 10:15:09;;;;;;;4.40;1.80;;;11.60;99.90;;;;;;5033940;28;20483;-67
2024/01/24 10:17:36;;;;;;;5.20;1.73;;;11.80;99.90;;;;;;5035362;28;20516;-65
2024/01/24 10:20:06;;;;;;;8.43;1.83;;;11.90;99.90;;;;;;5037614;28;20500;-65
2024/01/24 10:22:33;;;;;;;9.33;1.70;;;11.90;99.90;;;;;;5038002;28;20546;-65
2024/01/24 10:25:02;;;;;;;12.40;2.60;;;12.20;99.90;;;;;;5037984;28;20456;-66
2024/01/24 10:27:29;;;;;;;9.70;3.00;;;12.30;99.90;;;;;;5037843;28;20425;-65
2024/01/24 10:29:56;;;;;;;6.10;1.63;;;12.10;99.90;;;;;;5037471;28;20492;-63
2024/01/24 10:32:23;;;;;;;12.93;2.70;;;11.90;99.90;;;;;;5037683;28;20444;-63
2024/01/24 10:34:51;;;;;;;9.50;2.40;;;11.70;99.90;;;;;;5037859;28;20510;-67
2024/01/24 10:37:18;;;;;;;10.13;2.97;;;11.80;99.90;;;;;;5037295;28;20545;-64
2024/01/24 10:39:45;;;;;;;6.90;1.87;;;12.10;99.90;;;;;;5037692;28;20448;-63
2024/01/24 10:42:18;;;;;;;8.07;2.87;;;12.10;99.90;;;;;;5037589;28;20491;-69
2024/01/24 10:44:49;;;;;;;14.60;3.00;;;12.00;99.90;;;;;;5038503;28;20523;-68
2024/01/24 10:47:17;;;;;;;13.97;4.30;;;12.00;99.90;;;;;;5037750;28;20465;-64
2024/01/24 10:49:45;;;;;;;9.80;2.77;;;12.00;99.90;;;;;;5037243;28;20448;-63
2024/01/24 10:52:15;;;;;;;7.60;5.57;;;12.10;99.90;;;;;;5041379;28;20540;-65
2024/01/24 10:54:47;;;;;;;7.50;2.50;;;12.00;99.90;;;;;;5037176;28;20944;-65
2024/01/24 10:57:18;;;;;;;9.80;2.33;;;11.80;99.90;;;;;;5038111;28;20552;-66
2024/01/24 10:59:45;;;;;;;11.90;2.93;;;11.80;99.90;;;;;;5039528;28;20429;-62
2024/01/24 11:02:12;;;;;;;7.13;2.30;;;11.80;99.90;;;;;;5037296;28;20500;-67
2024/01/24 11:04:40;;;;;;;7.43;2.33;;;11.70;99.90;;;;;;5036965;28;20444;-69
2024/01/24 11:07:15;;;;;;;5.90;2.50;;;11.70;99.90;;;;;;5037243;28;20552;-65
2024/01/24 11:09:53;;;;;;;8.73;2.50;;;11.60;99.90;;;;;;5037283;28;20494;-68
2024/01/24 11:12:21;;;;;;;9.23;2.83;;;11.70;99.90;;;;;;5036975;28;20479;-64
2024/01/24 11:14:48;;;;;;;4.30;2.20;;;11.60;99.90;;;;;;5037247;28;20543;-71
2024/01/24 11:17:15;;;;;;;6.27;1.93;;;11.60;99.90;;;;;;5037034;28;20868;-65
2024/01/24 11:19:43;;;;;;;7.63;2.57;;;11.60;99.90;;;;;;5036740;28;20441;-66
2024/01/24 11:22:12;;;;;;;6.33;1.70;;;11.50;99.90;;;;;;5037491;28;20500;-66
2024/01/24 11:24:48;;;;;;;10.17;2.87;;;11.50;99.90;;;;;;5036756;28;20996;-67
2024/01/24 11:27:32;;;;;;;7.37;2.07;;;11.50;99.90;;;;;;5036856;28;20862;-67
2024/01/24 11:30:02;;;;;;;13.87;3.33;;;11.70;99.90;;;;;;5036122;28;20568;-68
2024/01/24 11:33:04;;;;;;;2.20;1.00;;;12.00;99.90;;;;;;5036748;28;20488;-69
2024/01/24 11:35:36;;;;;;;10.80;3.00;;;12.00;99.90;;;;;;5037593;28;20873;-65
2024/01/24 11:38:06;;;;;;;4.77;2.70;;;11.80;99.90;;;;;;5036497;28;20526;-65
2024/01/24 11:40:35;;;;;;;8.87;1.43;;;11.70;99.90;;;;;;5036419;28;20467;-65
2024/01/24 11:43:04;;;;;;;14.33;2.50;;;11.70;99.90;;;;;;5036226;28;20519;-64
2024/01/24 11:45:32;;;;;;;4.17;3.57;;;11.70;99.90;;;;;;5036220;28;20440;-69
2024/01/24 11:47:59;;;;;;;20.67;2.93;;;11.80;99.90;;;;;;5036434;28;20508;-65
2024/01/24 11:50:26;;;;;;;12.43;2.43;;;11.80;99.90;;;;;;5036421;28;20948;-66
2024/01/24 11:52:59;;;;;;;15.30;3.70;;;11.70;99.90;;;;;;5035995;28;20506;-71
2024/01/24 11:55:27;;;;;;;8.97;2.67;;;11.70;99.90;;;;;;5036950;28;20524;-65
2024/01/24 11:57:54;;;;;;;7.53;2.33;;;11.60;99.90;;;;;;5036115;28;20492;-66
2024/01/24 12:00:24;;;;;;;2.80;1.67;;;11.60;99.90;;;;;;5036190;28;20452;-64
2024/01/24 12:02:51;;;;;;;5.93;1.90;;;11.70;99.90;;;;;;5035737;28;20437;-66
2024/01/24 12:05:18;;;;;;;16.27;3.60;;;11.70;99.90;;;;;;5035951;28;20425;-69
2024/01/24 12:07:45;;;;;;;5.20;2.33;;;11.70;99.90;;;;;;5035930;28;20435;-66
2024/01/24 12:10:12;;;;;;;5.53;1.77;;;11.60;99.90;;;;;;5036251;28;20445;-64
2024/01/24 12:12:40;;;;;;;7.17;2.57;;;11.60;99.90;;;;;;5036049;28;20523;-67
2024/01/24 12:15:10;;;;;;;4.87;1.67;;;11.60;99.90;;;;;;5035900;28;20543;-66
2024/01/24 12:17:40;;;;;;;8.37;1.60;;;11.50;99.90;;;;;;5035446;28;20485;-65
2024/01/24 12:20:08;;;;;;;7.63;1.93;;;11.50;99.90;;;;;;5035506;28;20460;-65
2024/01/24 12:22:35;;;;;;;5.93;2.10;;;11.60;99.90;;;;;;5035284;28;20451;-67
2024/01/24 12:25:03;;;;;;;7.43;2.50;;;11.60;99.90;;;;;;5035320;28;20470;-64
2024/01/24 12:27:31;;;;;;;10.23;2.33;;;11.50;99.90;;;;;;5035381;28;20440;-62
2024/01/24 12:29:58;;;;;;;3.50;1.70;;;11.50;99.90;;;;;;5035706;28;20558;-65
2024/01/24 12:32:25;;;;;;;4.83;2.90;;;11.50;99.90;;;;;;5035290;28;20962;-65
2024/01/24 12:34:55;;;;;;;3.90;2.40;;;11.40;99.90;;;;;;5035564;28;20948;-68
2024/01/24 12:37:22;;;;;;;8.43;2.00;;;11.40;99.90;;;;;;5036070;28;20507;-65
2024/01/24 12:39:52;;;;;;;8.40;2.00;;;11.40;99.90;;;;;;5035372;28;20487;-64
2024/01/24 12:42:19;;;;;;;6.10;2.00;;;11.40;99.90;;;;;;5035091;28;20547;-60
2024/01/24 12:44:53;;;;;;;5.77;1.70;;;11.30;99.90;;;;;;5035064;28;20967;-64
2024/01/24 12:47:20;;;;;;;11.03;1.87;;;11.30;99.90;;;;;;5035314;28;20468;-65
2024/01/24 12:49:47;;;;;;;6.60;1.47;;;11.30;99.90;;;;;;5035370;28;20837;-65
2024/01/24 12:52:15;;;;;;;6.00;2.63;;;11.30;99.90;;;;;;5035179;28;20946;-61
2024/01/24 12:54:42;;;;;;;5.53;1.50;;;11.30;99.90;;;;;;5034979;28;20542;-65
2024/01/24 12:57:09;;;;;;;8.07;1.67;;;11.30;99.90;;;;;;5035420;28;20523;-64